createdAt,value
2023-05-19T00:01:49.448Z,2.13
2023-05-19T00:04:23.179Z,2.05
2023-05-19T00:06:56.833Z,1.80
2023-05-19T00:09:30.216Z,2.00
2023-05-19T00:12:03.524Z,2.33
2023-05-19T00:14:38.353Z,2.35
2023-05-19T00:17:11.851Z,2.15
2023-05-19T00:19:45.064Z,2.28
2023-05-19T00:22:17.978Z,2.35
2023-05-19T00:24:50.774Z,2.15
2023-05-19T00:27:23.645Z,2.00
2023-05-19T00:29:57.970Z,1.95
2023-05-19T00:32:31.217Z,2.30
2023-05-19T00:35:04.332Z,2.10
2023-05-19T00:37:37.508Z,3.28
2023-05-19T00:40:11.564Z,2.00
2023-05-19T00:42:44.429Z,2.60
2023-05-19T00:45:18.954Z,2.67
2023-05-19T00:47:51.838Z,2.20
2023-05-19T00:50:25.242Z,2.63
2023-05-19T00:52:58.319Z,2.97
2023-05-19T00:55:34.403Z,3.08
2023-05-19T00:58:08.202Z,2.80
2023-05-19T01:00:43.458Z,2.88
2023-05-19T01:03:20.870Z,2.70
2023-05-19T01:05:54.006Z,3.20
2023-05-19T01:08:27.131Z,3.22
2023-05-19T01:11:00.691Z,2.85
2023-05-19T01:13:34.372Z,2.95
2023-05-19T01:16:13.676Z,3.40
2023-05-19T01:18:56.185Z,3.33
2023-05-19T01:21:58.237Z,2.67
2023-05-19T01:25:04.421Z,2.67
2023-05-19T01:28:14.820Z,2.47
2023-05-19T01:30:54.695Z,2.38
2023-05-19T01:33:29.619Z,2.40
2023-05-19T01:36:05.186Z,2.45
2023-05-19T01:38:40.126Z,2.33
2023-05-19T01:41:13.682Z,2.60
2023-05-19T01:43:46.879Z,2.30
2023-05-19T01:46:22.347Z,2.83
2023-05-19T01:48:56.065Z,2.42
2023-05-19T01:51:29.120Z,3.25
2023-05-19T01:54:01.875Z,2.63
2023-05-19T01:56:47.877Z,2.22
2023-05-19T01:59:33.750Z,2.28
2023-05-19T02:02:18.468Z,2.58
2023-05-19T02:04:58.648Z,2.88
2023-05-19T02:07:38.931Z,2.30
2023-05-19T02:10:15.651Z,2.10
2023-05-19T02:12:54.553Z,2.47
2023-05-19T02:15:35.496Z,2.33
2023-05-19T02:18:11.525Z,2.67
2023-05-19T02:20:44.989Z,2.45
2023-05-19T02:23:17.873Z,2.28
2023-05-19T02:25:50.774Z,2.20
2023-05-19T02:28:23.648Z,2.85
2023-05-19T02:30:56.534Z,2.33
2023-05-19T02:33:31.558Z,2.65
2023-05-19T02:36:04.682Z,2.30
2023-05-19T02:38:37.746Z,2.55
2023-05-19T02:41:10.720Z,2.40
2023-05-19T02:43:43.653Z,3.28
2023-05-19T02:46:16.472Z,2.72
2023-05-19T02:48:50.725Z,2.58
2023-05-19T02:51:23.659Z,2.15
2023-05-19T02:53:56.792Z,2.70
2023-05-19T02:56:29.698Z,3.05
2023-05-19T02:59:02.609Z,2.75
2023-05-19T03:01:37.996Z,2.88
2023-05-19T03:04:14.005Z,2.53
2023-05-19T03:06:46.969Z,2.60
2023-05-19T03:09:19.826Z,2.70
2023-05-19T03:11:52.668Z,2.35
2023-05-19T03:14:25.532Z,2.22
2023-05-19T03:16:59.902Z,2.35
2023-05-19T03:19:34.881Z,3.55
2023-05-19T03:22:07.723Z,2.33
2023-05-19T03:24:41.295Z,2.78
2023-05-19T03:27:14.878Z,3.60
2023-05-19T03:29:47.843Z,3.88
2023-05-19T03:32:21.053Z,3.17
2023-05-19T03:34:55.512Z,3.08
2023-05-19T03:37:28.625Z,2.30
2023-05-19T03:40:02.396Z,2.95
2023-05-19T03:42:36.092Z,2.72
2023-05-19T03:45:09.804Z,2.75
2023-05-19T03:47:42.649Z,2.40
2023-05-19T03:50:31.811Z,2.53
2023-05-19T03:53:18.748Z,2.75
2023-05-19T03:55:51.710Z,2.92
2023-05-19T03:58:24.544Z,3.45
2023-05-19T04:00:59.668Z,3.35
2023-05-19T04:03:32.557Z,2.67
2023-05-19T04:06:07.478Z,3.17
2023-05-19T04:08:40.585Z,2.83
2023-05-19T04:11:14.034Z,2.92
2023-05-19T04:13:47.214Z,2.65
2023-05-19T04:16:20.152Z,2.53
2023-05-19T04:18:53.914Z,2.70
2023-05-19T04:21:28.562Z,2.20
2023-05-19T04:24:01.795Z,2.67
2023-05-19T04:26:35.098Z,2.50
2023-05-19T04:29:08.830Z,2.38
2023-05-19T04:31:42.147Z,2.28
2023-05-19T04:34:15.205Z,2.22
2023-05-19T04:36:51.647Z,3.08
2023-05-19T04:39:29.620Z,2.70
2023-05-19T04:42:02.729Z,2.65
2023-05-19T04:44:38.087Z,2.65
2023-05-19T04:47:11.435Z,2.78
2023-05-19T04:49:44.673Z,2.85
2023-05-19T04:52:21.848Z,2.33
2023-05-19T04:54:54.902Z,3.10
2023-05-19T04:57:29.437Z,2.40
2023-05-19T05:00:03.317Z,2.55
2023-05-19T05:02:43.708Z,2.60
2023-05-19T05:05:16.813Z,2.92
2023-05-19T05:07:54.162Z,2.10
2023-05-19T05:10:28.981Z,2.20
2023-05-19T05:13:02.813Z,2.20
2023-05-19T05:15:36.644Z,2.08
2023-05-19T05:18:10.365Z,2.58
2023-05-19T05:20:44.211Z,2.60
2023-05-19T05:23:20.328Z,2.53
2023-05-19T05:25:55.268Z,4.03
2023-05-19T05:28:28.434Z,1.70
2023-05-19T05:31:01.326Z,2.38
2023-05-19T05:33:34.405Z,2.50
2023-05-19T05:36:08.111Z,2.13
2023-05-19T05:38:42.564Z,2.25
2023-05-19T05:41:16.770Z,2.40
2023-05-19T05:43:50.002Z,2.42
2023-05-19T05:46:24.386Z,2.17
2023-05-19T05:48:57.783Z,2.30
2023-05-19T05:51:32.981Z,2.50
2023-05-19T05:54:09.104Z,2.60
2023-05-19T05:56:46.812Z,2.40
2023-05-19T05:59:20.414Z,2.42
2023-05-19T06:01:53.781Z,2.63
2023-05-19T06:04:27.142Z,2.53
2023-05-19T06:07:01.900Z,2.47
2023-05-19T06:09:40.621Z,2.25
2023-05-19T06:12:15.088Z,2.72
2023-05-19T06:14:52.961Z,2.33
2023-05-19T06:17:54.779Z,2.15
2023-05-19T06:20:27.790Z,2.55
2023-05-19T06:23:02.015Z,2.28
2023-05-19T06:25:36.870Z,2.17
2023-05-19T06:28:09.709Z,2.78
2023-05-19T06:30:43.270Z,2.13
2023-05-19T06:33:29.104Z,1.80
2023-05-19T06:36:02.496Z,2.05
2023-05-19T06:38:36.294Z,2.15
2023-05-19T06:41:10.552Z,2.25
2023-05-19T06:43:43.578Z,1.75
2023-05-19T06:46:20.027Z,2.20
2023-05-19T06:48:53.287Z,1.95
2023-05-19T06:51:29.538Z,2.47
2023-05-19T06:54:03.183Z,1.90
2023-05-19T06:56:37.573Z,1.95
2023-05-19T06:59:10.884Z,1.70
2023-05-19T07:01:44.533Z,2.00
2023-05-19T07:04:17.872Z,1.80
2023-05-19T07:06:50.975Z,2.17
2023-05-19T07:09:24.655Z,2.22
2023-05-19T07:11:59.063Z,2.28
2023-05-19T07:14:31.852Z,2.10
2023-05-19T07:17:05.159Z,1.63
2023-05-19T07:19:39.282Z,2.20
2023-05-19T07:22:12.493Z,2.15
2023-05-19T07:24:45.394Z,1.90
2023-05-19T07:27:19.767Z,1.70
2023-05-19T07:29:52.671Z,1.92
2023-05-19T07:32:25.982Z,2.40
2023-05-19T07:34:58.851Z,1.75
2023-05-19T07:37:31.751Z,1.73
2023-05-19T07:40:05.132Z,2.55
2023-05-19T07:42:39.308Z,2.50
2023-05-19T07:45:12.853Z,2.15
2023-05-19T07:47:45.786Z,1.70
2023-05-19T07:50:18.719Z,2.25
2023-05-19T07:52:51.600Z,2.33
2023-05-19T07:55:24.747Z,3.15
2023-05-19T07:57:58.939Z,2.40
2023-05-19T08:00:32.456Z,2.60
2023-05-19T08:03:06.000Z,2.17
2023-05-19T08:05:39.322Z,2.92
2023-05-19T08:08:12.925Z,1.88
2023-05-19T08:10:45.885Z,1.95
2023-05-19T08:13:20.096Z,2.10
2023-05-19T08:15:55.063Z,2.85
2023-05-19T08:18:28.251Z,1.90
2023-05-19T08:21:01.755Z,1.60
2023-05-19T08:23:34.839Z,3.08
2023-05-19T08:26:08.023Z,1.83
2023-05-19T08:28:42.197Z,2.17
2023-05-19T08:31:15.095Z,2.00
2023-05-19T08:33:48.083Z,2.20
2023-05-19T08:36:22.062Z,2.30
2023-05-19T08:38:54.909Z,2.03
2023-05-19T08:41:27.936Z,2.38
2023-05-19T08:44:02.264Z,2.15
2023-05-19T08:46:36.224Z,1.95
2023-05-19T08:49:13.237Z,1.88
2023-05-19T08:51:55.955Z,1.80
2023-05-19T08:54:35.248Z,2.22
2023-05-19T08:57:10.220Z,2.47
2023-05-19T08:59:45.049Z,2.00
2023-05-19T09:02:18.927Z,2.30
2023-05-19T09:04:52.141Z,1.75
2023-05-19T09:07:26.629Z,1.50
2023-05-19T09:10:00.981Z,1.73
2023-05-19T09:12:34.811Z,2.13
2023-05-19T09:15:10.884Z,2.90
2023-05-19T09:17:44.982Z,1.88
2023-05-19T09:20:18.323Z,2.10
2023-05-19T09:22:52.668Z,1.90
2023-05-19T09:25:25.640Z,2.03
2023-05-19T09:27:58.638Z,2.00
2023-05-19T09:30:34.545Z,2.10
2023-05-19T09:33:10.030Z,2.13
2023-05-19T09:35:48.148Z,1.92
2023-05-19T09:38:21.460Z,2.05
2023-05-19T09:40:54.516Z,1.95
2023-05-19T09:43:29.628Z,1.98
2023-05-19T09:46:05.670Z,1.80
2023-05-19T09:48:38.903Z,2.33
2023-05-19T09:51:11.878Z,2.05
2023-05-19T09:53:48.010Z,2.42
2023-05-19T09:56:23.741Z,1.67
2023-05-19T09:58:56.776Z,1.60
2023-05-19T10:01:33.668Z,1.80
2023-05-19T10:04:07.002Z,1.77
2023-05-19T10:06:40.769Z,1.42
2023-05-19T10:09:14.194Z,1.83
2023-05-19T10:11:47.182Z,1.50
2023-05-19T10:14:21.236Z,2.20
2023-05-19T10:16:57.326Z,1.40
2023-05-19T10:19:30.504Z,1.70
2023-05-19T10:22:03.410Z,1.60
2023-05-19T10:24:36.304Z,1.42
2023-05-19T10:27:12.875Z,2.05
2023-05-19T10:29:51.009Z,1.70
2023-05-19T10:32:29.895Z,1.48
2023-05-19T10:35:29.424Z,1.65
2023-05-19T10:38:13.889Z,1.90
2023-05-19T10:40:58.646Z,1.70
2023-05-19T10:43:42.917Z,1.70
2023-05-19T10:46:16.655Z,1.92
2023-05-19T10:48:51.092Z,2.33
2023-05-19T10:51:31.377Z,1.70
2023-05-19T10:54:10.990Z,1.67
2023-05-19T10:56:47.782Z,1.80
2023-05-19T10:59:32.910Z,1.60
2023-05-19T11:02:06.621Z,1.45
2023-05-19T11:04:52.402Z,1.70
2023-05-19T11:07:25.810Z,1.92
2023-05-19T11:09:58.739Z,1.73
2023-05-19T11:12:42.075Z,1.80
2023-05-19T11:15:16.391Z,2.17
2023-05-19T11:17:50.255Z,1.42
2023-05-19T11:20:26.068Z,2.03
2023-05-19T11:23:05.651Z,1.63
2023-05-19T11:25:46.963Z,1.30
2023-05-19T11:28:25.665Z,1.20
2023-05-19T11:31:00.192Z,1.63
2023-05-19T11:33:33.615Z,1.90
2023-05-19T11:36:09.393Z,1.17
2023-05-19T11:38:43.571Z,1.40
2023-05-19T11:41:18.889Z,1.40
2023-05-19T11:43:53.565Z,1.48
2023-05-19T11:46:26.412Z,1.65
2023-05-19T11:48:59.410Z,1.58
2023-05-19T11:51:34.204Z,1.42
2023-05-19T11:54:07.491Z,1.30
2023-05-19T11:56:44.410Z,1.50
2023-05-19T11:59:17.281Z,1.60
2023-05-19T12:01:50.692Z,1.40
2023-05-19T12:04:23.646Z,1.70
2023-05-19T12:06:58.303Z,1.50
2023-05-19T12:09:31.371Z,1.33
2023-05-19T12:12:04.725Z,1.63
2023-05-19T12:14:38.871Z,1.27
2023-05-19T12:17:13.691Z,1.40
2023-05-19T12:19:48.935Z,1.92
2023-05-19T12:22:26.881Z,1.50
2023-05-19T12:25:12.237Z,1.00
2023-05-19T12:27:47.682Z,1.52
2023-05-19T12:30:27.844Z,1.50
2023-05-19T12:33:01.649Z,1.13
2023-05-19T12:35:40.242Z,1.48
2023-05-19T12:38:17.263Z,1.42
2023-05-19T12:40:53.899Z,1.83
2023-05-19T12:43:31.834Z,1.17
2023-05-19T12:48:48.259Z,1.40
2023-05-19T12:51:24.375Z,1.38
2023-05-19T12:53:59.577Z,1.50
2023-05-19T12:56:53.790Z,1.20
2023-05-19T12:59:38.368Z,1.38
2023-05-19T13:02:15.744Z,1.50
2023-05-19T13:04:49.476Z,1.33
2023-05-19T13:07:23.028Z,1.88
2023-05-19T13:09:57.946Z,1.25
2023-05-19T13:12:37.951Z,1.10
2023-05-19T13:15:12.638Z,1.30
2023-05-19T13:17:46.605Z,1.02
2023-05-19T13:20:19.723Z,1.30
2023-05-19T13:22:53.572Z,1.23
2023-05-19T13:25:28.320Z,1.25
2023-05-19T13:28:04.912Z,1.45
2023-05-19T13:30:39.545Z,2.55
2023-05-19T13:33:12.663Z,1.60
2023-05-19T13:35:45.562Z,1.30
2023-05-19T13:38:18.404Z,1.48
2023-05-19T13:40:52.784Z,1.20
2023-05-19T13:43:25.633Z,1.42
2023-05-19T13:45:58.855Z,1.40
2023-05-19T13:48:31.656Z,1.63
2023-05-19T13:51:04.435Z,1.00
2023-05-19T13:53:37.509Z,1.40
2023-05-19T13:56:11.717Z,1.33
2023-05-19T13:58:44.723Z,1.10
2023-05-19T14:01:17.771Z,1.50
2023-05-19T14:03:50.789Z,1.30
2023-05-19T14:06:23.810Z,1.13
2023-05-19T14:08:56.603Z,1.40
2023-05-19T14:11:31.107Z,1.10
2023-05-19T14:14:04.093Z,1.30
2023-05-19T14:16:38.190Z,1.75
2023-05-19T14:19:11.295Z,1.63
2023-05-19T14:21:44.266Z,1.42
2023-05-19T14:24:17.062Z,1.10
2023-05-19T14:26:52.652Z,1.42
2023-05-19T14:29:25.658Z,1.20
2023-05-19T14:31:58.530Z,1.40
2023-05-19T14:34:31.440Z,1.27
2023-05-19T14:37:04.243Z,0.98
2023-05-19T14:39:37.100Z,1.33
2023-05-19T14:42:11.820Z,1.60
2023-05-19T14:44:44.796Z,1.30
2023-05-19T14:47:17.831Z,1.25
2023-05-19T14:49:51.025Z,1.33
2023-05-19T14:52:24.305Z,1.23
2023-05-19T14:54:57.212Z,1.13
2023-05-19T14:57:31.550Z,1.15
2023-05-19T15:00:04.856Z,1.50
2023-05-19T15:02:37.768Z,1.10
2023-05-19T15:05:11.720Z,1.40
2023-05-19T15:07:44.567Z,1.27
2023-05-19T15:10:17.529Z,1.40
2023-05-19T15:12:51.798Z,1.40
2023-05-19T15:15:24.528Z,1.00
2023-05-19T15:17:57.360Z,1.23
2023-05-19T15:20:30.212Z,1.50
2023-05-19T15:23:03.201Z,1.10
2023-05-19T15:25:35.992Z,1.15
2023-05-19T15:28:10.231Z,1.40
2023-05-19T15:30:43.352Z,1.25
2023-05-19T15:33:16.443Z,1.38
2023-05-19T15:35:51.746Z,1.30
2023-05-19T15:38:24.646Z,1.90
2023-05-19T15:40:57.510Z,1.20
2023-05-19T15:43:31.725Z,1.52
2023-05-19T15:46:05.262Z,1.20
2023-05-19T15:48:38.321Z,1.80
2023-05-19T15:51:11.515Z,1.60
2023-05-19T15:53:44.408Z,1.40
2023-05-19T15:56:17.518Z,1.10
2023-05-19T15:58:51.991Z,1.38
2023-05-19T16:01:25.129Z,1.33
2023-05-19T16:03:58.250Z,1.27
2023-05-19T16:06:31.737Z,1.40
2023-05-19T16:09:04.744Z,1.35
2023-05-19T16:11:37.579Z,1.23
2023-05-19T16:14:11.856Z,1.33
2023-05-19T16:16:44.860Z,1.80
2023-05-19T16:19:17.903Z,1.38
2023-05-19T16:21:50.748Z,1.40
2023-05-19T16:24:23.497Z,1.35
2023-05-19T16:26:56.508Z,1.23
2023-05-19T16:29:30.775Z,1.63
2023-05-19T16:32:03.782Z,1.35
2023-05-19T16:34:36.805Z,1.70
2023-05-19T16:37:09.627Z,2.13
2023-05-19T16:39:43.816Z,1.58
2023-05-19T16:42:16.596Z,1.38
2023-05-19T16:44:50.723Z,1.65
2023-05-19T16:47:23.816Z,1.50
2023-05-19T16:49:56.756Z,1.90
2023-05-19T16:52:29.677Z,1.85
2023-05-19T16:55:02.586Z,1.67
2023-05-19T16:57:35.481Z,1.80
2023-05-19T17:00:11.534Z,1.73
2023-05-19T17:02:44.440Z,1.70
2023-05-19T17:05:17.629Z,1.40
2023-05-19T17:07:50.635Z,1.77
2023-05-19T17:10:23.610Z,1.27
2023-05-19T17:12:56.492Z,2.42
2023-05-19T17:15:30.819Z,2.97
2023-05-19T17:18:05.618Z,1.48
2023-05-19T17:20:38.689Z,1.55
2023-05-19T17:23:11.729Z,1.60
2023-05-19T17:25:44.594Z,1.65
2023-05-19T17:28:17.638Z,1.52
2023-05-19T17:30:51.833Z,1.50
2023-05-19T17:33:24.976Z,1.77
2023-05-19T17:35:57.931Z,1.63
2023-05-19T17:38:32.204Z,1.42
2023-05-19T17:41:09.725Z,1.73
2023-05-19T17:43:43.041Z,1.50
2023-05-19T17:46:17.222Z,1.73
2023-05-19T17:48:50.186Z,1.98
2023-05-19T17:51:23.609Z,2.15
2023-05-19T17:53:57.142Z,1.70
2023-05-19T17:56:34.170Z,2.00
2023-05-19T17:59:07.417Z,1.60
2023-05-19T18:01:42.537Z,2.10
2023-05-19T18:04:16.339Z,1.55
2023-05-19T18:06:52.404Z,1.90
2023-05-19T18:09:29.017Z,2.10
2023-05-19T18:12:02.621Z,2.00
2023-05-19T18:14:35.449Z,1.90
2023-05-19T18:17:09.669Z,1.80
2023-05-19T18:19:42.467Z,1.77
2023-05-19T18:22:15.354Z,1.80
2023-05-19T18:24:48.308Z,2.00
2023-05-19T18:27:21.108Z,1.75
2023-05-19T18:29:54.018Z,1.88
2023-05-19T18:32:28.345Z,2.22
2023-05-19T18:35:01.182Z,1.63
2023-05-19T18:37:34.059Z,1.80
2023-05-19T18:40:08.960Z,2.00
2023-05-19T18:42:41.834Z,1.67
2023-05-19T18:45:15.031Z,1.80
2023-05-19T18:47:49.369Z,1.58
2023-05-19T18:50:22.579Z,2.03
2023-05-19T18:52:55.506Z,1.92
2023-05-19T18:55:28.771Z,1.92
2023-05-19T18:58:02.433Z,2.15
2023-05-19T19:00:36.513Z,2.47
2023-05-19T19:03:11.894Z,2.17
2023-05-19T19:05:44.864Z,1.95
2023-05-19T19:08:17.712Z,2.20
2023-05-19T19:10:51.779Z,1.98
2023-05-19T19:13:24.731Z,1.75
2023-05-19T19:15:57.603Z,1.95
2023-05-19T19:18:31.933Z,1.80
2023-05-19T19:21:05.752Z,1.92
2023-05-19T19:23:39.179Z,1.70
2023-05-19T19:26:14.382Z,2.15
2023-05-19T19:28:47.761Z,1.90
2023-05-19T19:31:21.165Z,2.05
2023-05-19T19:33:58.944Z,1.65
2023-05-19T19:36:33.995Z,2.20
2023-05-19T19:39:07.505Z,1.88
2023-05-19T19:41:41.096Z,1.95
2023-05-19T19:44:14.721Z,2.00
2023-05-19T19:46:47.952Z,2.10
2023-05-19T19:49:22.532Z,2.03
2023-05-19T19:51:57.273Z,2.25
2023-05-19T19:54:33.652Z,2.30
2023-05-19T19:57:07.234Z,1.55
2023-05-19T19:59:40.584Z,2.20
2023-05-19T20:02:14.176Z,1.90
2023-05-19T20:04:48.866Z,2.42
2023-05-19T20:07:23.384Z,2.03
2023-05-19T20:09:57.098Z,1.73
2023-05-19T20:12:33.892Z,2.30
2023-05-19T20:15:08.646Z,1.85
2023-05-19T20:17:41.798Z,1.85
2023-05-19T20:20:16.934Z,2.33
2023-05-19T20:22:49.892Z,2.05
2023-05-19T20:25:22.993Z,2.53
2023-05-19T20:27:56.098Z,2.00
2023-05-19T20:30:29.279Z,2.17
2023-05-19T20:33:02.636Z,2.53
2023-05-19T20:35:37.337Z,2.30
2023-05-19T20:38:10.731Z,2.10
2023-05-19T20:40:43.710Z,2.30
2023-05-19T20:43:16.582Z,2.60
2023-05-19T20:45:49.580Z,2.72
2023-05-19T20:48:22.585Z,2.10
2023-05-19T20:50:57.440Z,2.30
2023-05-19T20:53:30.509Z,2.38
2023-05-19T20:56:05.228Z,2.28
2023-05-19T20:58:38.124Z,2.20
2023-05-19T21:01:10.978Z,2.03
2023-05-19T21:03:44.090Z,2.22
2023-05-19T21:06:18.611Z,2.25
2023-05-19T21:08:51.649Z,2.28
2023-05-19T21:11:24.555Z,2.50
2023-05-19T21:13:57.462Z,2.30
2023-05-19T21:16:30.821Z,2.17
2023-05-19T21:19:03.878Z,2.50
2023-05-19T21:21:42.671Z,2.13
2023-05-19T21:24:16.191Z,2.67
2023-05-19T21:26:49.876Z,2.10
2023-05-19T21:29:22.844Z,2.53
2023-05-19T21:31:59.165Z,2.22
2023-05-19T21:34:36.459Z,2.30
2023-05-19T21:37:10.808Z,3.10
2023-05-19T21:39:43.773Z,2.55
2023-05-19T21:42:16.708Z,2.40
2023-05-19T21:44:49.572Z,2.65
2023-05-19T21:47:22.461Z,2.28
2023-05-19T21:49:55.374Z,2.38
2023-05-19T21:52:30.324Z,2.10
2023-05-19T21:55:03.314Z,2.50
2023-05-19T21:57:36.339Z,2.10
2023-05-19T22:00:13.020Z,2.55
2023-05-19T22:02:46.406Z,2.00
2023-05-19T22:05:19.663Z,2.30
2023-05-19T22:07:53.992Z,2.70
2023-05-19T22:10:26.858Z,2.40
2023-05-19T22:12:59.920Z,2.80
2023-05-19T22:15:32.752Z,2.28
2023-05-19T22:18:05.742Z,2.38
2023-05-19T22:20:38.824Z,2.25
2023-05-19T22:23:13.435Z,2.70
2023-05-19T22:25:46.357Z,2.33
2023-05-19T22:28:19.326Z,2.50
2023-05-19T22:30:52.199Z,2.22
2023-05-19T22:33:25.132Z,2.88
2023-05-19T22:35:58.281Z,2.58
2023-05-19T22:38:32.522Z,2.53
2023-05-19T22:41:05.537Z,2.72
2023-05-19T22:43:38.462Z,3.45
2023-05-19T22:46:11.369Z,2.85
2023-05-19T22:48:44.425Z,2.78
2023-05-19T22:51:17.433Z,2.88
2023-05-19T22:53:51.656Z,3.10
2023-05-19T22:56:24.735Z,2.55
2023-05-19T22:58:57.825Z,2.38
2023-05-19T23:01:30.696Z,2.40
2023-05-19T23:04:03.997Z,3.00
2023-05-19T23:06:36.993Z,2.92
2023-05-19T23:09:11.541Z,2.65
2023-05-19T23:11:44.509Z,2.60
2023-05-19T23:14:18.562Z,2.80
2023-05-19T23:16:51.533Z,2.78
2023-05-19T23:19:24.684Z,3.05
2023-05-19T23:21:57.604Z,3.05
2023-05-19T23:24:31.920Z,3.10
2023-05-19T23:27:05.309Z,2.90
2023-05-19T23:29:38.292Z,2.70
2023-05-19T23:32:11.398Z,2.85
2023-05-19T23:34:44.380Z,3.00
2023-05-19T23:37:17.255Z,3.05
2023-05-19T23:39:51.519Z,3.20
2023-05-19T23:42:24.597Z,3.10
2023-05-19T23:44:57.510Z,3.17
2023-05-19T23:47:30.828Z,2.67
2023-05-19T23:50:03.756Z,2.58
2023-05-19T23:52:36.716Z,2.40
2023-05-19T23:55:12.728Z,2.95
2023-05-19T23:57:45.628Z,3.22
